THY2QJ LTFM-LGAV
Flight info
| Callsign | THY2QJ |
|---|---|
| Flight time | 0h 53m |
| Altitude | 38000 |
| Route | IVGU1D IVGUS UY226 BIG UN604 OGSIL OGSI1W |
| Aircraft | B738/M-VGDW/C |
Departure
| Time | 2026-05-07 09:44 |
|---|---|
| Airport | İstanbul Airport (LTFM) |
Arrival
| Time | 2026-05-07 10:37 |
|---|---|
| Airport | Athens Eleftherios Venizelos International Airport (LGAV) |
| Time | Latitude | Longitude | Altitude | Speed | Heading |
|---|---|---|---|---|---|
| 2026-05-07 09:25 | 41.26334 | 28.73576 | 312 ft | 0 kts | 72° |
| 2026-05-07 09:30 | 41.26331 | 28.73566 | 312 ft | 2 kts | 72° |
| 2026-05-07 09:30 | 41.26326 | 28.73545 | 312 ft | 2 kts | 72° |
| 2026-05-07 09:30 | 41.26322 | 28.73525 | 311 ft | 2 kts | 72° |
| 2026-05-07 09:30 | 41.26317 | 28.73504 | 312 ft | 2 kts | 65° |
| 2026-05-07 09:31 | 41.26319 | 28.73484 | 312 ft | 2 kts | 131° |
| 2026-05-07 09:31 | 41.26327 | 28.73475 | 311 ft | 0 kts | 161° |
| 2026-05-07 09:36 | 41.26321 | 28.73477 | 312 ft | 3 kts | 163° |
| 2026-05-07 09:36 | 41.26274 | 28.73495 | 312 ft | 10 kts | 168° |
| 2026-05-07 09:37 | 41.26224 | 28.73452 | 312 ft | 10 kts | 254° |
| 2026-05-07 09:37 | 41.26221 | 28.73366 | 312 ft | 9 kts | 269° |
| 2026-05-07 09:37 | 41.26220 | 28.73281 | 311 ft | 9 kts | 268° |
| 2026-05-07 09:37 | 41.26219 | 28.73200 | 312 ft | 9 kts | 269° |
| 2026-05-07 09:38 | 41.26218 | 28.73116 | 311 ft | 9 kts | 269° |
| 2026-05-07 09:38 | 41.26217 | 28.73034 | 311 ft | 9 kts | 269° |
| 2026-05-07 09:38 | 41.26216 | 28.72962 | 311 ft | 0 kts | 270° |
| 2026-05-07 09:41 | 41.26216 | 28.72961 | 311 ft | 1 kts | 270° |
| 2026-05-07 09:41 | 41.26216 | 28.72912 | 312 ft | 10 kts | 269° |
| 2026-05-07 09:42 | 41.26215 | 28.72799 | 314 ft | 13 kts | 269° |
| 2026-05-07 09:42 | 41.26213 | 28.72684 | 312 ft | 13 kts | 269° |
| 2026-05-07 09:42 | 41.26212 | 28.72569 | 313 ft | 12 kts | 270° |
| 2026-05-07 09:42 | 41.26262 | 28.72525 | 313 ft | 9 kts | 357° |
| 2026-05-07 09:43 | 41.26275 | 28.72525 | 313 ft | 0 kts | 359° |
| 2026-05-07 09:43 | 41.26307 | 28.72524 | 313 ft | 23 kts | 359° |
| 2026-05-07 09:43 | 41.26736 | 28.72517 | 308 ft | 101 kts | 359° |
| 2026-05-07 09:44 | 41.27670 | 28.72504 | 311 ft | 163 kts | 2° |
| 2026-05-07 09:44 | 41.28858 | 28.72477 | 987 ft | 175 kts | 360° |
| 2026-05-07 09:44 | 41.30140 | 28.72477 | 1804 ft | 187 kts | 359° |
| 2026-05-07 09:44 | 41.31450 | 28.72454 | 2642 ft | 196 kts | 355° |
| 2026-05-07 09:45 | 41.32904 | 28.72410 | 3164 ft | 222 kts | 358° |
| 2026-05-07 09:45 | 41.34525 | 28.72459 | 3490 ft | 242 kts | 359° |
| 2026-05-07 09:45 | 41.36219 | 28.71987 | 3813 ft | 256 kts | 328° |
| 2026-05-07 09:45 | 41.37510 | 28.70366 | 4590 ft | 257 kts | 301° |
| 2026-05-07 09:46 | 41.38148 | 28.68162 | 5541 ft | 257 kts | 279° |
| 2026-05-07 09:46 | 41.38208 | 28.65783 | 6474 ft | 258 kts | 270° |
| 2026-05-07 09:46 | 41.38164 | 28.63375 | 7252 ft | 263 kts | 270° |
| 2026-05-07 09:46 | 41.38119 | 28.60904 | 7989 ft | 270 kts | 270° |
| 2026-05-07 09:47 | 41.37750 | 28.58426 | 8720 ft | 280 kts | 248° |
| 2026-05-07 09:47 | 41.36617 | 28.56296 | 9543 ft | 288 kts | 226° |
| 2026-05-07 09:47 | 41.35102 | 28.54496 | 10267 ft | 296 kts | 223° |
| 2026-05-07 09:47 | 41.33461 | 28.52669 | 10505 ft | 321 kts | 222° |
| 2026-05-07 09:48 | 41.31676 | 28.50713 | 10746 ft | 343 kts | 221° |
| 2026-05-07 09:48 | 41.29799 | 28.48662 | 11269 ft | 353 kts | 221° |
| 2026-05-07 09:48 | 41.27922 | 28.46605 | 11869 ft | 355 kts | 221° |
| 2026-05-07 09:48 | 41.25992 | 28.44481 | 11973 ft | 356 kts | 221° |
| 2026-05-07 09:49 | 41.24108 | 28.42402 | 12052 ft | 359 kts | 221° |
| 2026-05-07 09:49 | 41.22172 | 28.40257 | 12624 ft | 364 kts | 221° |
| 2026-05-07 09:49 | 41.20227 | 28.38103 | 13477 ft | 364 kts | 221° |
| 2026-05-07 09:49 | 41.18274 | 28.35937 | 14171 ft | 369 kts | 221° |
| 2026-05-07 09:50 | 41.16287 | 28.33732 | 14814 ft | 373 kts | 221° |
| 2026-05-07 09:50 | 41.14289 | 28.31516 | 15493 ft | 376 kts | 222° |
| 2026-05-07 09:50 | 41.12266 | 28.29275 | 16143 ft | 380 kts | 222° |
| 2026-05-07 09:50 | 41.10226 | 28.27016 | 16778 ft | 384 kts | 222° |
| 2026-05-07 09:51 | 41.08162 | 28.24733 | 17422 ft | 388 kts | 222° |
| 2026-05-07 09:51 | 41.06076 | 28.22427 | 18041 ft | 392 kts | 222° |
| 2026-05-07 09:51 | 41.03971 | 28.20101 | 18633 ft | 396 kts | 222° |
| 2026-05-07 09:51 | 41.01846 | 28.17756 | 19182 ft | 398 kts | 223° |
| 2026-05-07 09:52 | 40.99707 | 28.15398 | 19738 ft | 401 kts | 223° |
| 2026-05-07 09:52 | 40.97553 | 28.13025 | 20277 ft | 404 kts | 223° |
| 2026-05-07 09:52 | 40.95387 | 28.10642 | 20807 ft | 407 kts | 223° |
| 2026-05-07 09:52 | 40.93202 | 28.08239 | 21316 ft | 410 kts | 223° |
| 2026-05-07 09:53 | 40.90999 | 28.05818 | 21822 ft | 413 kts | 224° |
| 2026-05-07 09:53 | 40.88774 | 28.03376 | 22312 ft | 416 kts | 224° |
| 2026-05-07 09:53 | 40.86538 | 28.00923 | 22799 ft | 420 kts | 224° |
| 2026-05-07 09:53 | 40.84303 | 27.98475 | 23269 ft | 423 kts | 224° |
| 2026-05-07 09:54 | 40.82035 | 27.95991 | 23732 ft | 426 kts | 224° |
| 2026-05-07 09:54 | 40.79741 | 27.93483 | 24123 ft | 429 kts | 224° |
| 2026-05-07 09:54 | 40.77435 | 27.90964 | 24542 ft | 431 kts | 224° |
| 2026-05-07 09:54 | 40.75126 | 27.88444 | 24950 ft | 432 kts | 224° |
| 2026-05-07 09:55 | 40.72801 | 27.85909 | 25349 ft | 434 kts | 224° |
| 2026-05-07 09:55 | 40.70465 | 27.83364 | 25736 ft | 436 kts | 224° |
| 2026-05-07 09:55 | 40.68114 | 27.80805 | 26116 ft | 439 kts | 224° |
| 2026-05-07 09:55 | 40.65780 | 27.78267 | 26480 ft | 441 kts | 224° |
| 2026-05-07 09:56 | 40.63378 | 27.75657 | 26852 ft | 443 kts | 224° |
| 2026-05-07 09:56 | 40.60994 | 27.73070 | 27217 ft | 445 kts | 224° |
| 2026-05-07 09:56 | 40.58603 | 27.70477 | 27556 ft | 447 kts | 224° |
| 2026-05-07 09:56 | 40.56228 | 27.67904 | 27909 ft | 449 kts | 224° |
| 2026-05-07 09:57 | 40.53815 | 27.65292 | 28254 ft | 451 kts | 224° |
| 2026-05-07 09:57 | 40.51384 | 27.62664 | 28588 ft | 453 kts | 224° |
| 2026-05-07 09:57 | 40.48946 | 27.60030 | 28921 ft | 454 kts | 224° |
| 2026-05-07 09:57 | 40.46496 | 27.57386 | 29246 ft | 456 kts | 224° |
| 2026-05-07 09:58 | 40.44035 | 27.54733 | 29555 ft | 458 kts | 224° |
| 2026-05-07 09:58 | 40.41568 | 27.52076 | 29864 ft | 460 kts | 224° |
| 2026-05-07 09:58 | 40.39083 | 27.49403 | 30161 ft | 462 kts | 224° |
| 2026-05-07 09:58 | 40.36594 | 27.46727 | 30407 ft | 463 kts | 224° |
| 2026-05-07 09:59 | 40.34100 | 27.44049 | 30686 ft | 464 kts | 224° |
| 2026-05-07 09:59 | 40.31607 | 27.41376 | 31072 ft | 461 kts | 224° |
| 2026-05-07 09:59 | 40.29127 | 27.38719 | 31492 ft | 458 kts | 224° |
| 2026-05-07 09:59 | 40.26666 | 27.36084 | 31853 ft | 457 kts | 224° |
| 2026-05-07 10:00 | 40.24205 | 27.33450 | 32183 ft | 456 kts | 224° |
| 2026-05-07 10:00 | 40.21753 | 27.30827 | 32519 ft | 455 kts | 224° |
| 2026-05-07 10:00 | 40.19330 | 27.28241 | 32873 ft | 453 kts | 224° |
| 2026-05-07 10:00 | 40.16830 | 27.25722 | 33228 ft | 454 kts | 220° |
| 2026-05-07 10:01 | 40.14256 | 27.23317 | 33563 ft | 453 kts | 219° |
| 2026-05-07 10:01 | 40.11667 | 27.20969 | 33889 ft | 453 kts | 219° |
| 2026-05-07 10:01 | 40.09075 | 27.18635 | 34194 ft | 452 kts | 219° |
| 2026-05-07 10:01 | 40.06495 | 27.16303 | 34497 ft | 450 kts | 219° |
| 2026-05-07 10:02 | 40.03932 | 27.13974 | 34796 ft | 448 kts | 219° |
| 2026-05-07 10:02 | 40.01385 | 27.11648 | 35070 ft | 447 kts | 220° |
| 2026-05-07 10:02 | 39.98841 | 27.09319 | 35343 ft | 445 kts | 220° |
| 2026-05-07 10:02 | 39.96307 | 27.06999 | 35615 ft | 444 kts | 220° |
| 2026-05-07 10:03 | 39.93784 | 27.04690 | 35880 ft | 443 kts | 220° |
| 2026-05-07 10:03 | 39.91268 | 27.02388 | 36155 ft | 441 kts | 220° |
| 2026-05-07 10:03 | 39.88759 | 27.00097 | 36419 ft | 440 kts | 220° |
| 2026-05-07 10:03 | 39.86256 | 26.97814 | 36685 ft | 438 kts | 220° |
| 2026-05-07 10:04 | 39.83764 | 26.95542 | 36923 ft | 437 kts | 220° |
| 2026-05-07 10:04 | 39.81271 | 26.93270 | 37140 ft | 437 kts | 220° |
| 2026-05-07 10:04 | 39.78822 | 26.91042 | 37353 ft | 436 kts | 220° |
| 2026-05-07 10:04 | 39.76333 | 26.88782 | 37628 ft | 434 kts | 220° |
| 2026-05-07 10:05 | 39.73856 | 26.86536 | 37876 ft | 433 kts | 220° |
| 2026-05-07 10:05 | 39.71382 | 26.84294 | 38054 ft | 433 kts | 220° |
| 2026-05-07 10:05 | 39.68904 | 26.82051 | 38139 ft | 434 kts | 220° |
| 2026-05-07 10:06 | 39.63941 | 26.77562 | 38175 ft | 434 kts | 220° |
| 2026-05-07 10:06 | 39.59002 | 26.73102 | 38145 ft | 434 kts | 220° |
| 2026-05-07 10:07 | 39.54046 | 26.68635 | 38157 ft | 434 kts | 220° |
| 2026-05-07 10:07 | 39.49091 | 26.64176 | 38145 ft | 433 kts | 220° |
| 2026-05-07 10:08 | 39.44141 | 26.59729 | 38154 ft | 433 kts | 220° |
| 2026-05-07 10:08 | 39.39180 | 26.55279 | 38151 ft | 433 kts | 219° |
| 2026-05-07 10:09 | 39.34227 | 26.50845 | 38154 ft | 433 kts | 219° |
| 2026-05-07 10:09 | 39.29085 | 26.46802 | 38159 ft | 437 kts | 214° |
| 2026-05-07 10:10 | 39.23861 | 26.42818 | 38145 ft | 432 kts | 223° |
| 2026-05-07 10:10 | 39.19756 | 26.37332 | 38168 ft | 423 kts | 236° |
| 2026-05-07 10:11 | 39.16110 | 26.31353 | 38165 ft | 425 kts | 236° |
| 2026-05-07 10:11 | 39.12425 | 26.25380 | 38156 ft | 426 kts | 236° |
| 2026-05-07 10:11 | 39.10569 | 26.22402 | 38030 ft | 429 kts | 236° |
| 2026-05-07 10:12 | 39.08679 | 26.19378 | 37535 ft | 434 kts | 236° |
| 2026-05-07 10:12 | 39.06785 | 26.16358 | 36962 ft | 432 kts | 236° |
| 2026-05-07 10:12 | 39.04901 | 26.13358 | 36414 ft | 430 kts | 236° |
| 2026-05-07 10:12 | 39.03018 | 26.10360 | 35828 ft | 430 kts | 236° |
| 2026-05-07 10:13 | 39.01161 | 26.07403 | 35217 ft | 430 kts | 235° |
| 2026-05-07 10:13 | 38.99256 | 26.04373 | 34598 ft | 431 kts | 235° |
| 2026-05-07 10:13 | 38.97385 | 26.01402 | 33905 ft | 433 kts | 235° |
| 2026-05-07 10:13 | 38.95484 | 25.98386 | 33194 ft | 434 kts | 235° |
| 2026-05-07 10:14 | 38.93588 | 25.95385 | 32720 ft | 430 kts | 235° |
| 2026-05-07 10:14 | 38.91705 | 25.92409 | 32239 ft | 426 kts | 235° |
| 2026-05-07 10:14 | 38.89847 | 25.89472 | 31784 ft | 422 kts | 235° |
| 2026-05-07 10:14 | 38.88000 | 25.86554 | 31337 ft | 418 kts | 235° |
| 2026-05-07 10:15 | 38.86171 | 25.83665 | 30901 ft | 415 kts | 235° |
| 2026-05-07 10:15 | 38.84351 | 25.80794 | 30467 ft | 412 kts | 235° |
| 2026-05-07 10:15 | 38.82569 | 25.77984 | 30008 ft | 409 kts | 235° |
| 2026-05-07 10:15 | 38.80783 | 25.75169 | 29507 ft | 405 kts | 234° |
| 2026-05-07 10:16 | 38.79011 | 25.72380 | 29059 ft | 401 kts | 235° |
| 2026-05-07 10:16 | 38.77252 | 25.69615 | 28606 ft | 397 kts | 234° |
| 2026-05-07 10:16 | 38.75513 | 25.66882 | 28162 ft | 394 kts | 234° |
| 2026-05-07 10:16 | 38.73787 | 25.64171 | 27714 ft | 392 kts | 234° |
| 2026-05-07 10:17 | 38.72065 | 25.61470 | 27278 ft | 389 kts | 234° |
| 2026-05-07 10:17 | 38.70361 | 25.58799 | 26843 ft | 386 kts | 234° |
| 2026-05-07 10:17 | 38.68670 | 25.56149 | 26417 ft | 383 kts | 234° |
| 2026-05-07 10:17 | 38.66983 | 25.53509 | 25994 ft | 382 kts | 234° |
| 2026-05-07 10:18 | 38.65294 | 25.50866 | 25582 ft | 387 kts | 234° |
| 2026-05-07 10:18 | 38.63601 | 25.48217 | 25148 ft | 390 kts | 234° |
| 2026-05-07 10:18 | 38.61859 | 25.45497 | 24688 ft | 391 kts | 234° |
| 2026-05-07 10:18 | 38.60153 | 25.42837 | 24257 ft | 391 kts | 233° |
| 2026-05-07 10:19 | 38.58425 | 25.40145 | 23801 ft | 392 kts | 233° |
| 2026-05-07 10:19 | 38.56694 | 25.37450 | 23295 ft | 392 kts | 233° |
| 2026-05-07 10:19 | 38.54960 | 25.34753 | 22817 ft | 391 kts | 233° |
| 2026-05-07 10:19 | 38.53235 | 25.32073 | 22362 ft | 390 kts | 233° |
| 2026-05-07 10:20 | 38.51516 | 25.29403 | 21916 ft | 387 kts | 233° |
| 2026-05-07 10:20 | 38.49810 | 25.26757 | 21472 ft | 384 kts | 233° |
| 2026-05-07 10:20 | 38.48120 | 25.24136 | 21040 ft | 381 kts | 233° |
| 2026-05-07 10:20 | 38.46444 | 25.21539 | 20616 ft | 378 kts | 233° |
| 2026-05-07 10:21 | 38.44776 | 25.18954 | 20192 ft | 376 kts | 233° |
| 2026-05-07 10:21 | 38.43142 | 25.16426 | 19778 ft | 373 kts | 233° |
| 2026-05-07 10:21 | 38.41495 | 25.13880 | 19359 ft | 372 kts | 233° |
| 2026-05-07 10:21 | 38.39851 | 25.11341 | 18777 ft | 374 kts | 233° |
| 2026-05-07 10:22 | 38.38179 | 25.08761 | 18158 ft | 378 kts | 233° |
| 2026-05-07 10:22 | 38.36508 | 25.06185 | 17635 ft | 375 kts | 233° |
| 2026-05-07 10:22 | 38.34850 | 25.03632 | 17177 ft | 371 kts | 233° |
| 2026-05-07 10:22 | 38.33210 | 25.01110 | 16741 ft | 367 kts | 233° |
| 2026-05-07 10:23 | 38.31592 | 24.98621 | 16326 ft | 363 kts | 233° |
| 2026-05-07 10:23 | 38.29989 | 24.96157 | 15916 ft | 359 kts | 233° |
| 2026-05-07 10:23 | 38.28420 | 24.93680 | 15572 ft | 352 kts | 238° |
| 2026-05-07 10:23 | 38.27298 | 24.91041 | 15476 ft | 337 kts | 249° |
| 2026-05-07 10:24 | 38.26578 | 24.88230 | 15076 ft | 327 kts | 257° |
| 2026-05-07 10:24 | 38.26022 | 24.85463 | 14720 ft | 317 kts | 258° |
| 2026-05-07 10:24 | 38.25495 | 24.82780 | 14356 ft | 308 kts | 258° |
| 2026-05-07 10:24 | 38.24988 | 24.80201 | 14040 ft | 301 kts | 258° |
| 2026-05-07 10:25 | 38.24477 | 24.77623 | 13717 ft | 301 kts | 258° |
| 2026-05-07 10:25 | 38.23964 | 24.75046 | 13380 ft | 300 kts | 258° |
| 2026-05-07 10:25 | 38.23449 | 24.72481 | 13045 ft | 299 kts | 257° |
| 2026-05-07 10:25 | 38.22933 | 24.69921 | 12714 ft | 298 kts | 257° |
| 2026-05-07 10:26 | 38.22418 | 24.67379 | 12384 ft | 297 kts | 257° |
| 2026-05-07 10:26 | 38.21902 | 24.64839 | 12039 ft | 296 kts | 257° |
| 2026-05-07 10:26 | 38.21560 | 24.63158 | 11802 ft | 296 kts | 257° |
| 2026-05-07 10:26 | 38.21048 | 24.60649 | 11447 ft | 290 kts | 257° |
| 2026-05-07 10:27 | 38.20546 | 24.58195 | 11099 ft | 283 kts | 257° |
| 2026-05-07 10:27 | 38.20055 | 24.55792 | 10760 ft | 280 kts | 257° |
| 2026-05-07 10:27 | 38.19564 | 24.53394 | 10432 ft | 281 kts | 257° |
| 2026-05-07 10:27 | 38.19071 | 24.50986 | 10106 ft | 281 kts | 257° |
| 2026-05-07 10:28 | 38.18578 | 24.48583 | 9748 ft | 281 kts | 256° |
| 2026-05-07 10:28 | 38.18086 | 24.46186 | 9383 ft | 278 kts | 256° |
| 2026-05-07 10:28 | 38.17600 | 24.43827 | 9015 ft | 273 kts | 256° |
| 2026-05-07 10:28 | 38.17121 | 24.41502 | 8655 ft | 270 kts | 256° |
| 2026-05-07 10:29 | 38.16649 | 24.39211 | 8299 ft | 266 kts | 256° |
| 2026-05-07 10:29 | 38.16183 | 24.36949 | 7977 ft | 262 kts | 257° |
| 2026-05-07 10:29 | 38.15728 | 24.34715 | 7595 ft | 259 kts | 256° |
| 2026-05-07 10:30 | 38.14815 | 24.30339 | 6946 ft | 252 kts | 255° |
| 2026-05-07 10:30 | 38.14371 | 24.28192 | 6609 ft | 248 kts | 255° |
| 2026-05-07 10:30 | 38.13937 | 24.26097 | 6295 ft | 243 kts | 255° |
| 2026-05-07 10:30 | 38.13508 | 24.24033 | 6006 ft | 241 kts | 255° |
| 2026-05-07 10:31 | 38.13087 | 24.21996 | 5693 ft | 241 kts | 255° |
| 2026-05-07 10:31 | 38.12653 | 24.19931 | 5367 ft | 243 kts | 254° |
| 2026-05-07 10:31 | 38.12212 | 24.17855 | 5018 ft | 242 kts | 255° |
| 2026-05-07 10:31 | 38.11790 | 24.15807 | 4692 ft | 237 kts | 254° |
| 2026-05-07 10:32 | 38.11375 | 24.13800 | 4380 ft | 232 kts | 254° |
| 2026-05-07 10:32 | 38.10970 | 24.11857 | 4118 ft | 221 kts | 254° |
| 2026-05-07 10:32 | 38.10484 | 24.10080 | 3867 ft | 206 kts | 233° |
| 2026-05-07 10:32 | 38.09504 | 24.08844 | 3766 ft | 195 kts | 223° |
| 2026-05-07 10:33 | 38.08525 | 24.07662 | 3630 ft | 195 kts | 221° |
| 2026-05-07 10:33 | 38.07494 | 24.06562 | 3391 ft | 189 kts | 218° |
| 2026-05-07 10:33 | 38.06481 | 24.05571 | 3157 ft | 179 kts | 217° |
| 2026-05-07 10:33 | 38.05518 | 24.04648 | 2923 ft | 168 kts | 217° |
| 2026-05-07 10:34 | 38.04605 | 24.03778 | 2731 ft | 162 kts | 216° |
| 2026-05-07 10:34 | 38.03704 | 24.02918 | 2505 ft | 162 kts | 216° |
| 2026-05-07 10:34 | 38.02800 | 24.02056 | 2288 ft | 163 kts | 216° |
| 2026-05-07 10:34 | 38.01895 | 24.01192 | 2078 ft | 162 kts | 216° |
| 2026-05-07 10:35 | 38.01002 | 24.00339 | 1856 ft | 158 kts | 216° |
| 2026-05-07 10:35 | 38.00161 | 23.99543 | 1640 ft | 149 kts | 214° |
| 2026-05-07 10:35 | 37.99340 | 23.98760 | 1449 ft | 149 kts | 216° |
| 2026-05-07 10:35 | 37.98513 | 23.97960 | 1246 ft | 152 kts | 217° |
| 2026-05-07 10:36 | 37.97680 | 23.97164 | 1054 ft | 152 kts | 214° |
| 2026-05-07 10:36 | 37.96849 | 23.96378 | 828 ft | 145 kts | 216° |
| 2026-05-07 10:36 | 37.96053 | 23.95614 | 638 ft | 144 kts | 216° |
| 2026-05-07 10:36 | 37.95261 | 23.94842 | 467 ft | 143 kts | 216° |
| 2026-05-07 10:37 | 37.94485 | 23.94106 | 305 ft | 135 kts | 217° |
| 2026-05-07 10:37 | 37.93811 | 23.93464 | 280 ft | 101 kts | 217° |
| 2026-05-07 10:37 | 37.93417 | 23.93090 | 277 ft | 48 kts | 217° |
| 2026-05-07 10:37 | 37.93177 | 23.92883 | 272 ft | 33 kts | 205° |
| 2026-05-07 10:38 | 37.92986 | 23.92821 | 271 ft | 16 kts | 182° |
| 2026-05-07 10:38 | 37.92931 | 23.92881 | 271 ft | 11 kts | 94° |
| 2026-05-07 10:38 | 37.92978 | 23.92952 | 272 ft | 9 kts | 37° |
| 2026-05-07 10:38 | 37.93027 | 23.92999 | 272 ft | 9 kts | 36° |
| 2026-05-07 10:39 | 37.93075 | 23.93043 | 276 ft | 8 kts | 37° |
| 2026-05-07 10:39 | 37.93121 | 23.93087 | 274 ft | 8 kts | 37° |
| 2026-05-07 10:39 | 37.93166 | 23.93130 | 274 ft | 8 kts | 37° |
| 2026-05-07 10:39 | 37.93220 | 23.93183 | 275 ft | 13 kts | 37° |
| 2026-05-07 10:40 | 37.93314 | 23.93273 | 276 ft | 19 kts | 37° |
| 2026-05-07 10:40 | 37.93416 | 23.93373 | 277 ft | 13 kts | 49° |
| 2026-05-07 10:40 | 37.93405 | 23.93476 | 281 ft | 13 kts | 127° |
| 2026-05-07 10:40 | 37.93353 | 23.93564 | 278 ft | 12 kts | 127° |
| 2026-05-07 10:41 | 37.93296 | 23.93658 | 278 ft | 16 kts | 127° |
| 2026-05-07 10:41 | 37.93220 | 23.93787 | 279 ft | 19 kts | 127° |
| 2026-05-07 10:41 | 37.93141 | 23.93919 | 279 ft | 19 kts | 127° |
| 2026-05-07 10:41 | 37.93098 | 23.94039 | 280 ft | 12 kts | 73° |
| 2026-05-07 10:42 | 37.93160 | 23.94111 | 284 ft | 12 kts | 37° |
| 2026-05-07 10:42 | 37.93226 | 23.94174 | 282 ft | 12 kts | 37° |
| 2026-05-07 10:42 | 37.93284 | 23.94245 | 282 ft | 11 kts | 68° |
| 2026-05-07 10:42 | 37.93258 | 23.94335 | 284 ft | 11 kts | 125° |
| 2026-05-07 10:43 | 37.93211 | 23.94412 | 284 ft | 11 kts | 127° |
| 2026-05-07 10:43 | 37.93166 | 23.94487 | 284 ft | 11 kts | 126° |
| 2026-05-07 10:43 | 37.93179 | 23.94568 | 287 ft | 10 kts | 40° |
| 2026-05-07 10:43 | 37.93234 | 23.94621 | 285 ft | 10 kts | 37° |
| 2026-05-07 10:44 | 37.93288 | 23.94674 | 286 ft | 10 kts | 37° |
| 2026-05-07 10:44 | 37.93342 | 23.94724 | 286 ft | 9 kts | 36° |
| 2026-05-07 10:44 | 37.93394 | 23.94772 | 289 ft | 9 kts | 36° |
| 2026-05-07 10:44 | 37.93444 | 23.94820 | 292 ft | 9 kts | 39° |
| 2026-05-07 10:45 | 37.93495 | 23.94861 | 288 ft | 9 kts | 12° |
| 2026-05-07 10:45 | 37.93541 | 23.94821 | 288 ft | 9 kts | 308° |
| 2026-05-07 10:45 | 37.93555 | 23.94799 | 289 ft | 0 kts | 308° |